< < Back
Terminal Aerodrome Forecast


Current Version              Previous Versions:   1  2  3  4  5  6  7  8  9  

Terminal Aerodrome Forecast

251
FTUS42 KJAX 311700
TAFGNV
TAF
KGNV 311740Z 3118/0118 06004KT P6SM SCT035 BKN250
     FM312000 14006KT P6SM VCTS SCT025 BKN040CB
      TEMPO 3120/3124 VRB25G35KT 4SM TSRA BKN025CB
     FM010200 15004KT P6SM FEW030 SCT100 BKN250=

Latest METAR

825
SAUS70 KWBC 010800 RRW
MTRGNV
METAR KGNV 010753Z AUTO 00000KT 10SM CLR 23/22 A3007 RMK AO2 SLP180
T02330217


USA.gov is the U.S. government's official web portal to all federal, state and local government web resources and services.